createdAt,value
2023-03-24T00:00:05.819Z,12.27
2023-03-24T00:00:35.610Z,12.27
2023-03-24T00:01:08.512Z,12.27
2023-03-24T00:01:39.345Z,12.27
2023-03-24T00:02:12.472Z,12.27
2023-03-24T00:02:43.558Z,12.27
2023-03-24T00:03:16.309Z,12.27
2023-03-24T00:03:47.440Z,12.27
2023-03-24T00:04:20.268Z,12.27
2023-03-24T00:04:51.473Z,12.27
2023-03-24T00:05:24.695Z,12.27
2023-03-24T00:05:55.379Z,12.27
2023-03-24T00:06:28.237Z,12.27
2023-03-24T00:06:59.436Z,12.27
2023-03-24T00:07:15.608Z,12.22
2023-03-24T00:07:47.335Z,12.22
2023-03-24T00:08:19.432Z,12.22
2023-03-24T00:08:52.297Z,12.22
2023-03-24T00:09:23.585Z,12.22
2023-03-24T00:09:56.242Z,12.22
2023-03-24T00:10:27.716Z,12.22
2023-03-24T00:11:00.444Z,12.22
2023-03-24T00:11:31.524Z,12.22
2023-03-24T00:12:04.462Z,12.22
2023-03-24T00:12:35.563Z,12.22
2023-03-24T00:13:08.468Z,12.22
2023-03-24T00:13:39.443Z,12.11
2023-03-24T00:14:12.360Z,12.11
2023-03-24T00:14:43.636Z,12.11
2023-03-24T00:15:17.118Z,12.11
2023-03-24T00:15:47.742Z,12.11
2023-03-24T00:16:20.326Z,12.11
2023-03-24T00:16:51.598Z,12.11
2023-03-24T00:17:24.193Z,12.11
2023-03-24T00:17:55.564Z,12.11
2023-03-24T00:18:28.240Z,12.11
2023-03-24T00:18:59.238Z,12.11
2023-03-24T00:19:32.047Z,12.11
2023-03-24T00:20:03.827Z,12.11
2023-03-24T00:20:36.258Z,12.11
2023-03-24T00:21:07.304Z,12.11
2023-03-24T00:21:40.126Z,12.11
2023-03-24T00:22:11.492Z,12.00
2023-03-24T00:22:44.168Z,12.00
2023-03-24T00:23:15.356Z,12.00
2023-03-24T00:23:48.167Z,12.00
2023-03-24T00:24:19.335Z,12.00
2023-03-24T00:24:52.204Z,12.00
2023-03-24T00:25:23.787Z,12.00
2023-03-24T00:25:56.272Z,12.00
2023-03-24T00:26:27.352Z,12.00
2023-03-24T00:27:00.109Z,12.00
2023-03-24T00:27:31.471Z,12.00
2023-03-24T00:28:04.333Z,12.00
2023-03-24T00:28:35.449Z,12.00
2023-03-24T00:29:08.224Z,12.00
2023-03-24T00:29:39.613Z,12.00
2023-03-24T00:30:13.188Z,12.00
2023-03-24T00:30:43.872Z,11.88
2023-03-24T00:31:16.441Z,11.88
2023-03-24T00:31:47.472Z,11.88
2023-03-24T00:32:20.265Z,11.88
2023-03-24T00:32:51.594Z,11.88
2023-03-24T00:33:24.211Z,11.88
2023-03-24T00:33:55.386Z,11.88
2023-03-24T00:34:28.353Z,11.88
2023-03-24T00:34:59.581Z,11.88
2023-03-24T00:35:32.703Z,11.88
2023-03-24T00:36:03.483Z,11.88
2023-03-24T00:36:36.454Z,11.88
2023-03-24T00:37:07.446Z,11.88
2023-03-24T00:37:40.301Z,11.88
2023-03-24T00:38:11.537Z,11.88
2023-03-24T00:38:44.291Z,11.88
2023-03-24T00:39:15.399Z,11.88
2023-03-24T00:39:48.190Z,11.88
2023-03-24T00:40:19.886Z,11.88
2023-03-24T00:40:51.972Z,11.88
2023-03-24T00:41:23.495Z,11.88
2023-03-24T00:41:56.282Z,11.88
2023-03-24T00:42:27.463Z,11.88
2023-03-24T00:43:00.118Z,11.88
2023-03-24T00:43:31.478Z,11.88
2023-03-24T00:44:04.230Z,11.88
2023-03-24T00:44:35.333Z,12.00
2023-03-24T00:45:09.241Z,12.00
2023-03-24T00:45:39.606Z,12.00
2023-03-24T00:46:12.385Z,12.00
2023-03-24T00:46:43.451Z,12.00
2023-03-24T00:47:16.316Z,12.00
2023-03-24T00:47:47.690Z,12.00
2023-03-24T00:48:20.181Z,12.00
2023-03-24T00:48:51.421Z,12.00
2023-03-24T00:49:24.306Z,12.00
2023-03-24T00:49:55.598Z,12.00
2023-03-24T00:50:28.442Z,12.00
2023-03-24T00:50:59.482Z,12.00
2023-03-24T00:51:32.366Z,12.00
2023-03-24T00:52:03.511Z,12.00
2023-03-24T00:52:36.282Z,12.00
2023-03-24T00:53:07.835Z,12.00
2023-03-24T00:53:40.350Z,12.00
2023-03-24T00:54:11.410Z,12.00
2023-03-24T00:54:44.218Z,12.00
2023-03-24T00:55:15.981Z,12.00
2023-03-24T00:55:48.252Z,12.00
2023-03-24T00:56:19.564Z,12.00
2023-03-24T00:56:52.307Z,12.00
2023-03-24T00:57:23.575Z,12.00
2023-03-24T00:57:56.126Z,12.00
2023-03-24T00:58:27.448Z,12.00
2023-03-24T00:59:00.326Z,12.00
2023-03-24T00:59:31.308Z,12.00
2023-03-24T01:00:05.618Z,12.00
2023-03-24T01:00:35.689Z,12.00
2023-03-24T01:01:08.370Z,12.00
2023-03-24T01:01:39.696Z,12.00
2023-03-24T01:02:12.428Z,12.00
2023-03-24T01:02:43.690Z,12.00
2023-03-24T01:03:16.291Z,12.00
2023-03-24T01:03:47.495Z,12.00
2023-03-24T01:04:20.243Z,12.00
2023-03-24T01:04:51.598Z,12.00
2023-03-24T01:05:24.508Z,12.00
2023-03-24T01:05:55.549Z,12.00
2023-03-24T01:06:28.021Z,12.00
2023-03-24T01:06:59.512Z,12.00
2023-03-24T01:07:32.414Z,12.00
2023-03-24T01:08:04.054Z,12.11
2023-03-24T01:08:37.454Z,12.11
2023-03-24T01:09:07.545Z,12.11
2023-03-24T01:09:40.264Z,12.11
2023-03-24T01:10:11.796Z,12.11
2023-03-24T01:10:44.400Z,12.11
2023-03-24T01:11:15.418Z,12.11
2023-03-24T01:11:48.486Z,12.11
2023-03-24T01:12:19.383Z,12.00
2023-03-24T01:12:52.186Z,12.00
2023-03-24T01:13:23.509Z,12.00
2023-03-24T01:13:56.490Z,12.00
2023-03-24T01:14:27.388Z,12.00
2023-03-24T01:15:00.195Z,12.00
2023-03-24T01:15:32.716Z,12.00
2023-03-24T01:16:04.481Z,12.00
2023-03-24T01:16:35.583Z,12.00
2023-03-24T01:17:08.263Z,12.00
2023-03-24T01:17:39.585Z,12.00
2023-03-24T01:18:12.278Z,12.00
2023-03-24T01:18:43.470Z,12.00
2023-03-24T01:19:16.424Z,12.00
2023-03-24T01:19:47.374Z,12.00
2023-03-24T01:20:20.462Z,12.00
2023-03-24T01:20:51.463Z,12.00
2023-03-24T01:21:24.528Z,12.00
2023-03-24T01:21:55.357Z,12.00
2023-03-24T01:22:28.255Z,12.00
2023-03-24T01:22:59.552Z,12.00
2023-03-24T01:23:33.108Z,12.00
2023-03-24T01:24:03.480Z,12.00
2023-03-24T01:24:36.353Z,12.00
2023-03-24T01:25:07.683Z,12.11
2023-03-24T01:25:40.325Z,12.11
2023-03-24T01:26:11.500Z,12.11
2023-03-24T01:26:44.930Z,12.11
2023-03-24T01:27:15.524Z,12.11
2023-03-24T01:27:48.604Z,12.11
2023-03-24T01:28:19.395Z,12.11
2023-03-24T01:28:52.173Z,12.11
2023-03-24T01:29:23.429Z,12.11
2023-03-24T01:29:56.374Z,12.11
2023-03-24T01:30:28.431Z,12.11
2023-03-24T01:31:00.355Z,12.11
2023-03-24T01:31:31.539Z,12.22
2023-03-24T01:32:04.321Z,12.22
2023-03-24T01:32:35.571Z,12.22
2023-03-24T01:33:08.334Z,12.22
2023-03-24T01:33:39.552Z,12.27
2023-03-24T01:34:12.314Z,12.27
2023-03-24T01:34:43.572Z,12.22
2023-03-24T01:35:16.613Z,12.22
2023-03-24T01:35:47.403Z,12.27
2023-03-24T01:36:20.344Z,12.27
2023-03-24T01:36:51.528Z,12.27
2023-03-24T01:37:24.624Z,12.27
2023-03-24T01:37:55.453Z,12.27
2023-03-24T01:38:28.151Z,12.27
2023-03-24T01:38:59.548Z,12.27
2023-03-24T01:39:32.321Z,12.27
2023-03-24T01:40:03.768Z,12.27
2023-03-24T01:40:36.258Z,12.27
2023-03-24T01:41:07.494Z,12.38
2023-03-24T01:41:41.941Z,12.38
2023-03-24T01:42:11.380Z,12.38
2023-03-24T01:42:44.405Z,12.38
2023-03-24T01:43:15.422Z,12.38
2023-03-24T01:43:48.352Z,12.38
2023-03-24T01:44:19.645Z,12.38
2023-03-24T01:44:52.322Z,12.38
2023-03-24T01:45:24.333Z,12.38
2023-03-24T01:45:56.530Z,12.38
2023-03-24T01:46:27.557Z,12.38
2023-03-24T01:47:00.213Z,12.38
2023-03-24T01:47:33.400Z,12.38
2023-03-24T01:48:04.525Z,12.38
2023-03-24T01:48:35.608Z,12.38
2023-03-24T01:49:08.487Z,12.38
2023-03-24T01:49:39.580Z,12.38
2023-03-24T01:50:12.583Z,12.38
2023-03-24T01:50:43.592Z,12.38
2023-03-24T01:51:16.338Z,12.38
2023-03-24T01:51:47.569Z,12.38
2023-03-24T01:52:20.340Z,12.38
2023-03-24T01:52:51.361Z,12.38
2023-03-24T01:53:24.197Z,12.38
2023-03-24T01:53:55.537Z,12.38
2023-03-24T01:54:28.244Z,12.38
2023-03-24T01:54:59.494Z,12.38
2023-03-24T01:55:32.822Z,12.38
2023-03-24T01:56:03.568Z,12.38
2023-03-24T01:56:36.273Z,12.38
2023-03-24T01:57:07.696Z,12.38
2023-03-24T01:57:40.674Z,12.38
2023-03-24T01:58:11.450Z,12.27
2023-03-24T01:58:44.399Z,12.27
2023-03-24T01:59:15.586Z,12.27
2023-03-24T01:59:48.102Z,12.27
2023-03-24T02:00:20.558Z,12.38
2023-03-24T02:00:52.151Z,12.38
2023-03-24T02:01:23.661Z,12.27
2023-03-24T02:01:56.235Z,12.27
2023-03-24T02:02:27.459Z,12.27
2023-03-24T02:03:00.414Z,12.27
2023-03-24T02:03:31.513Z,12.27
2023-03-24T02:04:04.521Z,12.27
2023-03-24T02:04:35.489Z,12.27
2023-03-24T02:05:08.594Z,12.27
2023-03-24T02:05:39.490Z,12.27
2023-03-24T02:06:12.264Z,12.27
2023-03-24T02:06:43.565Z,12.27
2023-03-24T02:07:16.459Z,12.27
2023-03-24T02:07:47.510Z,12.27
2023-03-24T02:08:20.491Z,12.27
2023-03-24T02:08:51.492Z,12.27
2023-03-24T02:09:24.203Z,12.27
2023-03-24T02:09:55.529Z,12.27
2023-03-24T02:10:28.625Z,12.27
2023-03-24T02:10:59.373Z,12.27
2023-03-24T02:11:32.147Z,12.27
2023-03-24T02:12:03.534Z,12.22
2023-03-24T02:12:36.377Z,12.22
2023-03-24T02:13:07.514Z,12.22
2023-03-24T02:13:40.486Z,12.22
2023-03-24T02:14:11.538Z,12.22
2023-03-24T02:14:44.409Z,12.22
2023-03-24T02:15:16.333Z,12.22
2023-03-24T02:15:48.552Z,12.22
2023-03-24T02:16:19.689Z,12.22
2023-03-24T02:16:52.084Z,12.22
2023-03-24T02:17:23.460Z,12.22
2023-03-24T02:17:56.462Z,12.22
2023-03-24T02:18:27.359Z,12.22
2023-03-24T02:19:00.399Z,12.22
2023-03-24T02:19:31.594Z,12.22
2023-03-24T02:20:04.596Z,12.22
2023-03-24T02:20:35.483Z,12.22
2023-03-24T02:21:08.257Z,12.22
2023-03-24T02:21:39.539Z,12.11
2023-03-24T02:22:12.269Z,12.11
2023-03-24T02:22:43.535Z,12.11
2023-03-24T02:23:16.320Z,12.11
2023-03-24T02:23:47.644Z,12.11
2023-03-24T02:24:20.183Z,12.11
2023-03-24T02:24:51.506Z,12.22
2023-03-24T02:25:24.781Z,12.22
2023-03-24T02:25:55.479Z,12.11
2023-03-24T02:26:28.462Z,12.11
2023-03-24T02:26:59.602Z,12.11
2023-03-24T02:27:32.489Z,12.11
2023-03-24T02:28:03.535Z,12.11
2023-03-24T02:28:36.495Z,12.11
2023-03-24T02:29:07.556Z,12.11
2023-03-24T02:29:40.399Z,12.11
2023-03-24T02:30:12.377Z,12.11
2023-03-24T02:30:44.750Z,12.11
2023-03-24T02:31:15.472Z,12.11
2023-03-24T02:31:49.380Z,12.11
2023-03-24T02:32:19.583Z,12.11
2023-03-24T02:32:52.373Z,12.11
2023-03-24T02:33:23.509Z,12.11
2023-03-24T02:33:56.435Z,12.11
2023-03-24T02:34:27.569Z,12.11
2023-03-24T02:35:00.758Z,12.11
2023-03-24T02:35:31.562Z,12.11
2023-03-24T02:36:04.382Z,12.11
2023-03-24T02:36:35.609Z,12.22
2023-03-24T02:37:08.402Z,12.22
2023-03-24T02:37:39.513Z,12.11
2023-03-24T02:38:12.491Z,12.11
2023-03-24T02:38:43.556Z,12.11
2023-03-24T02:39:16.216Z,12.11
2023-03-24T02:39:47.677Z,12.22
2023-03-24T02:40:20.702Z,12.22
2023-03-24T02:40:51.416Z,12.22
2023-03-24T02:41:24.998Z,12.22
2023-03-24T02:41:55.555Z,12.11
2023-03-24T02:42:28.178Z,12.11
2023-03-24T02:42:59.508Z,12.22
2023-03-24T02:43:32.252Z,12.22
2023-03-24T02:44:03.678Z,12.22
2023-03-24T02:44:36.222Z,12.22
2023-03-24T02:45:08.525Z,12.22
2023-03-24T02:45:40.749Z,12.22
2023-03-24T02:46:11.502Z,12.22
2023-03-24T02:46:44.343Z,12.22
2023-03-24T02:47:15.566Z,12.22
2023-03-24T02:47:48.535Z,12.22
2023-03-24T02:48:19.541Z,12.22
2023-03-24T02:48:52.263Z,12.22
2023-03-24T02:49:23.468Z,12.22
2023-03-24T02:49:56.415Z,12.22
2023-03-24T02:50:27.869Z,12.22
2023-03-24T02:51:00.275Z,12.22
2023-03-24T02:51:31.730Z,12.22
2023-03-24T02:52:04.489Z,12.22
2023-03-24T02:52:35.677Z,12.22
2023-03-24T02:53:08.723Z,12.22
2023-03-24T02:53:39.592Z,12.22
2023-03-24T02:54:12.627Z,12.22
2023-03-24T02:54:43.741Z,12.22
2023-03-24T02:55:16.732Z,12.22
2023-03-24T02:55:47.488Z,12.22
2023-03-24T02:56:20.396Z,12.22
2023-03-24T02:56:51.742Z,12.22
2023-03-24T02:57:24.316Z,12.22
2023-03-24T02:57:55.622Z,12.22
2023-03-24T02:58:28.365Z,12.22
2023-03-24T02:58:59.787Z,12.22
2023-03-24T02:59:32.393Z,12.22
2023-03-24T03:00:05.018Z,12.22
2023-03-24T03:00:36.754Z,12.22
2023-03-24T03:01:07.547Z,12.22
2023-03-24T03:01:40.283Z,12.22
2023-03-24T03:02:11.985Z,12.22
2023-03-24T03:02:44.557Z,12.22
2023-03-24T03:03:15.713Z,12.22
2023-03-24T03:03:49.890Z,12.22
2023-03-24T03:04:19.938Z,12.22
2023-03-24T03:04:52.361Z,12.22
2023-03-24T03:05:24.057Z,12.22
2023-03-24T03:05:56.677Z,12.22
2023-03-24T03:06:27.543Z,12.22
2023-03-24T03:07:00.731Z,12.22
2023-03-24T03:07:31.684Z,12.22
2023-03-24T03:08:04.607Z,12.22
2023-03-24T03:08:35.543Z,12.22
2023-03-24T03:09:08.314Z,12.22
2023-03-24T03:09:39.576Z,12.22
2023-03-24T03:10:13.013Z,12.22
2023-03-24T03:10:43.906Z,12.22
2023-03-24T03:11:16.406Z,12.22
2023-03-24T03:11:47.427Z,12.22
2023-03-24T03:12:20.438Z,12.22
2023-03-24T03:12:51.610Z,12.22
2023-03-24T03:13:24.282Z,12.22
2023-03-24T03:13:55.453Z,12.22
2023-03-24T03:14:28.231Z,12.22
2023-03-24T03:14:59.561Z,12.22
2023-03-24T03:15:33.706Z,12.22
2023-03-24T03:16:03.645Z,12.22
2023-03-24T03:16:36.420Z,12.22
2023-03-24T03:17:07.537Z,12.22
2023-03-24T03:17:40.542Z,12.22
2023-03-24T03:18:11.566Z,12.27
2023-03-24T03:18:44.429Z,12.27
2023-03-24T03:19:15.595Z,12.27
2023-03-24T03:19:49.291Z,12.27
2023-03-24T03:20:19.823Z,12.27
2023-03-24T03:20:52.371Z,12.27
2023-03-24T03:21:23.515Z,12.27
2023-03-24T03:21:56.231Z,12.27
2023-03-24T03:22:27.579Z,12.27
2023-03-24T03:23:00.404Z,12.27
2023-03-24T03:23:31.542Z,12.27
2023-03-24T03:24:04.286Z,12.27
2023-03-24T03:24:35.648Z,12.27
2023-03-24T03:25:08.463Z,12.27
2023-03-24T03:25:39.569Z,12.27
2023-03-24T03:26:12.419Z,12.27
2023-03-24T03:26:43.475Z,12.27
2023-03-24T03:27:16.417Z,12.27
2023-03-24T03:27:47.560Z,12.27
2023-03-24T03:28:20.534Z,12.27
2023-03-24T03:28:51.506Z,12.27
2023-03-24T03:29:24.300Z,12.27
2023-03-24T03:29:55.604Z,12.38
2023-03-24T03:30:29.465Z,12.38
2023-03-24T03:30:59.632Z,12.38
2023-03-24T03:31:32.460Z,12.38
2023-03-24T03:32:03.601Z,12.38
2023-03-24T03:32:36.497Z,12.38
2023-03-24T03:33:07.628Z,12.38
2023-03-24T03:33:40.331Z,12.38
2023-03-24T03:34:11.494Z,12.38
2023-03-24T03:34:44.284Z,12.38
2023-03-24T03:35:15.841Z,12.38
2023-03-24T03:35:48.783Z,12.38
2023-03-24T03:36:19.548Z,12.50
2023-03-24T03:36:52.306Z,12.50
2023-03-24T03:37:23.564Z,12.50
2023-03-24T03:37:56.332Z,12.50
2023-03-24T03:38:27.487Z,12.50
2023-03-24T03:39:00.366Z,12.50
2023-03-24T03:39:31.655Z,12.50
2023-03-24T03:40:04.606Z,12.50
2023-03-24T03:40:36.181Z,12.50
2023-03-24T03:41:08.366Z,12.50
2023-03-24T03:41:39.468Z,12.50
2023-03-24T03:42:13.291Z,12.50
2023-03-24T03:42:43.605Z,12.50
2023-03-24T03:43:16.555Z,12.50
2023-03-24T03:43:47.467Z,12.50
2023-03-24T03:44:20.282Z,12.50
2023-03-24T03:44:51.678Z,12.50
2023-03-24T03:45:25.355Z,12.50
2023-03-24T03:45:55.682Z,12.50
2023-03-24T03:46:28.543Z,12.50
2023-03-24T03:46:59.684Z,12.50
2023-03-24T03:47:33.816Z,12.50
2023-03-24T03:48:03.602Z,12.61
2023-03-24T03:48:36.410Z,12.61
2023-03-24T03:49:07.558Z,12.61
2023-03-24T03:49:40.652Z,12.61
2023-03-24T03:50:11.868Z,12.61
2023-03-24T03:50:46.281Z,12.61
2023-03-24T03:51:15.551Z,12.61
2023-03-24T03:51:49.367Z,12.61
2023-03-24T03:52:19.685Z,12.61
2023-03-24T03:52:52.237Z,12.61
2023-03-24T03:53:23.590Z,12.61
2023-03-24T03:53:56.324Z,12.61
2023-03-24T03:54:27.485Z,12.61
2023-03-24T03:54:43.652Z,12.61
2023-03-24T03:55:15.714Z,12.61
2023-03-24T03:55:47.647Z,12.72
2023-03-24T03:56:20.351Z,12.72
2023-03-24T03:56:51.838Z,12.72
2023-03-24T03:57:24.304Z,12.72
2023-03-24T03:57:55.553Z,12.72
2023-03-24T03:58:28.421Z,12.72
2023-03-24T03:58:59.398Z,12.72
2023-03-24T03:59:32.160Z,12.72
2023-03-24T04:00:04.889Z,12.72
2023-03-24T04:00:36.376Z,12.72
2023-03-24T04:01:07.456Z,12.72
2023-03-24T04:01:40.567Z,12.72
2023-03-24T04:02:11.622Z,12.72
2023-03-24T04:02:44.539Z,12.72
2023-03-24T04:03:15.638Z,12.72
2023-03-24T04:03:48.432Z,12.72
2023-03-24T04:04:19.619Z,12.72
2023-03-24T04:04:59.768Z,12.72
2023-03-24T04:05:23.961Z,12.72
2023-03-24T04:05:56.419Z,12.72
2023-03-24T04:06:27.474Z,12.72
2023-03-24T04:07:00.534Z,12.72
2023-03-24T04:07:31.623Z,12.77
2023-03-24T04:08:04.526Z,12.77
2023-03-24T04:08:35.479Z,12.72
2023-03-24T04:09:08.467Z,12.72
2023-03-24T04:09:39.684Z,12.72
2023-03-24T04:10:12.576Z,12.72
2023-03-24T04:10:43.563Z,12.77
2023-03-24T04:11:16.391Z,12.77
2023-03-24T04:11:47.655Z,12.77
2023-03-24T04:12:20.374Z,12.77
2023-03-24T04:12:51.583Z,12.72
2023-03-24T04:13:24.497Z,12.72
2023-03-24T04:13:55.538Z,12.72
2023-03-24T04:14:28.423Z,12.72
2023-03-24T04:14:59.637Z,12.72
2023-03-24T04:15:33.701Z,12.72
2023-03-24T04:16:03.584Z,12.77
2023-03-24T04:16:36.442Z,12.77
2023-03-24T04:17:07.568Z,12.72
2023-03-24T04:17:40.634Z,12.72
2023-03-24T04:18:11.607Z,12.72
2023-03-24T04:18:44.385Z,12.72
2023-03-24T04:19:15.750Z,12.77
2023-03-24T04:19:48.385Z,12.77
2023-03-24T04:20:19.998Z,12.72
2023-03-24T04:20:52.402Z,12.72
2023-03-24T04:21:23.526Z,12.72
2023-03-24T04:21:56.339Z,12.72
2023-03-24T04:22:27.620Z,12.72
2023-03-24T04:23:00.281Z,12.72
2023-03-24T04:23:31.532Z,12.72
2023-03-24T04:24:04.648Z,12.72
2023-03-24T04:24:35.653Z,12.72
2023-03-24T04:25:08.387Z,12.72
2023-03-24T04:25:39.653Z,12.72
2023-03-24T04:26:12.429Z,12.72
2023-03-24T04:26:43.520Z,12.72
2023-03-24T04:27:16.483Z,12.72
2023-03-24T04:27:47.620Z,12.72
2023-03-24T04:28:20.362Z,12.72
2023-03-24T04:28:51.560Z,12.61
2023-03-24T04:29:24.339Z,12.61
2023-03-24T04:29:55.583Z,12.61
2023-03-24T04:30:29.388Z,12.61
2023-03-24T04:30:59.590Z,12.61
2023-03-24T04:31:32.278Z,12.61
2023-03-24T04:32:03.685Z,12.61
2023-03-24T04:32:36.427Z,12.61
2023-03-24T04:33:07.542Z,12.61
2023-03-24T04:33:40.426Z,12.61
2023-03-24T04:34:11.684Z,12.61
2023-03-24T04:34:44.369Z,12.61
2023-03-24T04:35:15.973Z,12.61
2023-03-24T04:35:48.412Z,12.61
2023-03-24T04:36:19.594Z,12.61
2023-03-24T04:36:52.268Z,12.61
2023-03-24T04:37:23.780Z,12.61
2023-03-24T04:37:56.358Z,12.61
2023-03-24T04:38:27.464Z,12.61
2023-03-24T04:39:00.565Z,12.61
2023-03-24T04:39:31.671Z,12.61
2023-03-24T04:40:04.618Z,12.61
2023-03-24T04:40:35.617Z,12.61
2023-03-24T04:41:10.402Z,12.61
2023-03-24T04:41:39.493Z,12.61
2023-03-24T04:42:12.389Z,12.61
2023-03-24T04:42:43.588Z,12.61
2023-03-24T04:43:16.316Z,12.61
2023-03-24T04:43:47.524Z,12.61
2023-03-24T04:44:20.426Z,12.61
2023-03-24T04:44:51.834Z,12.61
2023-03-24T04:45:25.255Z,12.61
2023-03-24T04:45:55.677Z,12.61
2023-03-24T04:46:28.310Z,12.61
2023-03-24T04:46:59.363Z,12.61
2023-03-24T04:47:32.540Z,12.61
2023-03-24T04:48:03.700Z,12.61
2023-03-24T04:48:36.349Z,12.61
2023-03-24T04:49:07.488Z,12.50
2023-03-24T04:49:40.407Z,12.50
2023-03-24T04:50:11.859Z,12.61
2023-03-24T04:50:44.246Z,12.61
2023-03-24T04:51:15.584Z,12.61
2023-03-24T04:51:48.287Z,12.61
2023-03-24T04:52:19.723Z,12.61
2023-03-24T04:52:52.350Z,12.61
2023-03-24T04:53:23.444Z,12.61
2023-03-24T04:53:56.425Z,12.61
2023-03-24T04:54:27.489Z,12.61
2023-03-24T04:55:00.748Z,12.61
2023-03-24T04:55:31.590Z,12.61
2023-03-24T04:56:04.370Z,12.61
2023-03-24T04:56:35.616Z,12.61
2023-03-24T04:57:08.618Z,12.61
2023-03-24T04:57:39.834Z,12.61
2023-03-24T04:58:12.315Z,12.61
2023-03-24T04:58:43.655Z,12.61
2023-03-24T04:59:16.454Z,12.61
2023-03-24T04:59:47.652Z,12.61
2023-03-24T05:00:21.322Z,12.61
2023-03-24T05:00:51.633Z,12.61
2023-03-24T05:01:24.509Z,12.61
2023-03-24T05:01:55.563Z,12.72
2023-03-24T05:02:28.509Z,12.72
2023-03-24T05:02:59.589Z,12.72
2023-03-24T05:03:32.492Z,12.72
2023-03-24T05:04:03.542Z,12.72
2023-03-24T05:04:36.426Z,12.72
2023-03-24T05:05:07.828Z,12.72
2023-03-24T05:05:40.326Z,12.72
2023-03-24T05:06:11.406Z,12.72
2023-03-24T05:06:44.428Z,12.72
2023-03-24T05:07:15.721Z,12.72
2023-03-24T05:07:48.234Z,12.72
2023-03-24T05:08:19.567Z,12.72
2023-03-24T05:08:52.313Z,12.72
2023-03-24T05:09:23.520Z,12.72
2023-03-24T05:09:56.310Z,12.72
2023-03-24T05:10:27.966Z,12.72
2023-03-24T05:11:00.200Z,12.72
2023-03-24T05:11:31.489Z,12.61
2023-03-24T05:12:04.461Z,12.61
2023-03-24T05:12:35.668Z,12.72
2023-03-24T05:13:08.408Z,12.72
2023-03-24T05:13:39.541Z,12.72
2023-03-24T05:14:12.279Z,12.72
2023-03-24T05:14:43.643Z,12.72
2023-03-24T05:15:17.205Z,12.72
2023-03-24T05:15:47.742Z,12.61
2023-03-24T05:16:21.415Z,12.61
2023-03-24T05:16:51.598Z,12.61
2023-03-24T05:17:24.226Z,12.61
2023-03-24T05:17:55.751Z,12.61
2023-03-24T05:18:28.408Z,12.61
2023-03-24T05:18:59.523Z,12.72
2023-03-24T05:19:32.477Z,12.72
2023-03-24T05:20:03.952Z,12.61
2023-03-24T05:20:36.292Z,12.61
2023-03-24T05:21:07.580Z,12.72
2023-03-24T05:21:41.292Z,12.72
2023-03-24T05:22:11.413Z,12.72
2023-03-24T05:22:44.415Z,12.72
2023-03-24T05:23:15.631Z,12.72
2023-03-24T05:23:48.498Z,12.72
2023-03-24T05:24:19.470Z,12.72
2023-03-24T05:24:52.617Z,12.72
2023-03-24T05:25:23.958Z,12.72
2023-03-24T05:25:56.467Z,12.72
2023-03-24T05:26:27.634Z,12.77
2023-03-24T05:27:00.693Z,12.77
2023-03-24T05:27:31.949Z,12.77
2023-03-24T05:28:04.495Z,12.77
2023-03-24T05:28:35.838Z,12.77
2023-03-24T05:29:08.716Z,12.77
2023-03-24T05:29:39.653Z,12.77
2023-03-24T05:30:13.472Z,12.77
2023-03-24T05:30:43.958Z,12.77
2023-03-24T05:31:16.433Z,12.77
2023-03-24T05:31:47.718Z,12.77
2023-03-24T05:32:20.749Z,12.77
2023-03-24T05:32:51.866Z,12.88
2023-03-24T05:33:24.430Z,12.88
2023-03-24T05:33:55.877Z,12.88
2023-03-24T05:34:28.764Z,12.88
2023-03-24T05:34:59.612Z,13.00
2023-03-24T05:35:16.178Z,13.00
2023-03-24T05:35:48.095Z,13.00
2023-03-24T05:36:19.804Z,13.00
2023-03-24T05:36:52.752Z,13.00
2023-03-24T05:37:23.817Z,13.00
2023-03-24T05:37:56.605Z,13.00
2023-03-24T05:38:27.794Z,13.00
2023-03-24T05:39:00.636Z,13.11
2023-03-24T05:39:31.892Z,13.11
2023-03-24T05:40:04.853Z,13.11
2023-03-24T05:40:35.887Z,13.11
2023-03-24T05:41:08.702Z,13.22
2023-03-24T05:41:39.726Z,13.22
2023-03-24T05:42:12.795Z,13.22
2023-03-24T05:42:43.823Z,13.22
2023-03-24T05:43:16.684Z,13.22
2023-03-24T05:43:47.742Z,13.22
2023-03-24T05:44:20.701Z,13.27
2023-03-24T05:44:51.895Z,13.27
2023-03-24T05:45:25.694Z,13.27
2023-03-24T05:45:55.979Z,13.27
2023-03-24T05:46:28.668Z,13.38
2023-03-24T05:46:59.777Z,13.38
2023-03-24T05:47:32.674Z,13.38
2023-03-24T05:48:03.909Z,13.38
2023-03-24T05:48:36.609Z,13.38
2023-03-24T05:49:07.774Z,13.38
2023-03-24T05:49:40.701Z,13.50
2023-03-24T05:50:11.974Z,13.50
2023-03-24T05:50:45.569Z,13.50
2023-03-24T05:51:15.820Z,13.50
2023-03-24T05:51:48.776Z,13.50
2023-03-24T05:52:19.854Z,13.50
2023-03-24T05:52:52.885Z,13.61
2023-03-24T05:53:23.830Z,13.61
2023-03-24T05:53:56.417Z,13.61
2023-03-24T05:54:27.860Z,13.61
2023-03-24T05:55:01.100Z,13.61
2023-03-24T05:55:31.692Z,13.61
2023-03-24T05:56:04.621Z,13.72
2023-03-24T05:56:36.005Z,13.72
2023-03-24T05:57:08.669Z,13.72
2023-03-24T05:57:39.810Z,13.72
2023-03-24T05:58:12.614Z,13.72
2023-03-24T05:58:43.924Z,13.72
2023-03-24T05:59:16.705Z,13.72
2023-03-24T05:59:47.913Z,13.72
2023-03-24T06:00:22.073Z,13.77
2023-03-24T06:00:51.742Z,13.77
2023-03-24T06:01:24.593Z,13.77
2023-03-24T06:01:55.908Z,13.77
2023-03-24T06:02:28.677Z,13.77
2023-03-24T06:02:59.917Z,13.77
2023-03-24T06:03:32.977Z,13.88
2023-03-24T06:04:03.971Z,13.88
2023-03-24T06:04:36.832Z,13.88
2023-03-24T06:05:07.887Z,13.88
2023-03-24T06:05:40.453Z,13.88
2023-03-24T06:06:11.862Z,13.88
2023-03-24T06:06:44.702Z,14.00
2023-03-24T06:07:15.848Z,14.00
2023-03-24T06:07:48.700Z,14.00
2023-03-24T06:08:19.831Z,14.00
2023-03-24T06:08:53.532Z,14.00
2023-03-24T06:09:23.842Z,14.00
2023-03-24T06:09:56.649Z,14.00
2023-03-24T06:10:28.077Z,14.00
2023-03-24T06:11:00.722Z,14.00
2023-03-24T06:11:31.885Z,14.00
2023-03-24T06:12:04.529Z,14.00
2023-03-24T06:12:35.818Z,14.00
2023-03-24T06:13:08.668Z,14.00
2023-03-24T06:13:39.872Z,14.00
2023-03-24T06:14:12.607Z,13.88
2023-03-24T06:14:43.752Z,13.88
2023-03-24T06:15:17.651Z,13.88
2023-03-24T06:15:48.393Z,13.88
2023-03-24T06:16:20.654Z,13.88
2023-03-24T06:16:51.846Z,13.88
2023-03-24T06:17:24.880Z,13.88
2023-03-24T06:17:55.830Z,13.88
2023-03-24T06:18:28.794Z,13.88
2023-03-24T06:18:59.960Z,13.88
2023-03-24T06:19:32.516Z,13.88
2023-03-24T06:20:04.009Z,13.88
2023-03-24T06:20:36.640Z,13.88
2023-03-24T06:21:07.991Z,13.88
2023-03-24T06:21:40.645Z,13.88
2023-03-24T06:22:11.804Z,13.88
2023-03-24T06:22:44.582Z,13.88
2023-03-24T06:23:15.762Z,13.88
2023-03-24T06:23:48.658Z,13.77
2023-03-24T06:24:19.891Z,13.77
2023-03-24T06:24:52.661Z,13.77
2023-03-24T06:25:24.111Z,13.77
2023-03-24T06:25:56.580Z,13.77
2023-03-24T06:26:27.990Z,13.77
2023-03-24T06:27:00.606Z,13.77
2023-03-24T06:27:31.878Z,13.77
2023-03-24T06:28:04.606Z,13.77
2023-03-24T06:28:35.680Z,13.77
2023-03-24T06:29:08.632Z,13.72
2023-03-24T06:29:39.899Z,13.72
2023-03-24T06:30:13.448Z,13.72
2023-03-24T06:30:44.027Z,13.72
2023-03-24T06:31:16.974Z,13.72
2023-03-24T06:31:48.074Z,13.72
2023-03-24T06:32:20.732Z,13.72
2023-03-24T06:32:51.898Z,13.72
2023-03-24T06:33:24.844Z,13.72
2023-03-24T06:33:56.060Z,13.72
2023-03-24T06:34:28.559Z,13.72
2023-03-24T06:34:59.937Z,13.72
2023-03-24T06:35:33.241Z,13.72
2023-03-24T06:36:03.990Z,13.72
2023-03-24T06:36:36.768Z,13.72
2023-03-24T06:37:08.022Z,13.72
2023-03-24T06:37:40.751Z,13.61
2023-03-24T06:38:11.938Z,13.61
2023-03-24T06:38:44.884Z,13.61
2023-03-24T06:39:16.062Z,13.61
2023-03-24T06:39:48.781Z,13.61
2023-03-24T06:40:20.177Z,13.61
2023-03-24T06:40:52.699Z,13.61
2023-03-24T06:41:23.739Z,13.61
2023-03-24T06:41:56.803Z,13.61
2023-03-24T06:42:28.009Z,13.61
2023-03-24T06:43:00.855Z,13.61
2023-03-24T06:43:31.773Z,13.61
2023-03-24T06:44:04.606Z,13.61
2023-03-24T06:44:35.843Z,13.61
2023-03-24T06:45:09.600Z,13.50
2023-03-24T06:45:39.917Z,13.50
2023-03-24T06:46:12.751Z,13.50
2023-03-24T06:46:43.920Z,13.50
2023-03-24T06:47:16.722Z,13.50
2023-03-24T06:47:48.629Z,13.50
2023-03-24T06:48:20.896Z,13.50
2023-03-24T06:48:51.893Z,13.50
2023-03-24T06:49:24.565Z,13.50
2023-03-24T06:49:55.787Z,13.50
2023-03-24T06:50:29.127Z,13.50
2023-03-24T06:50:59.831Z,13.50